Time;durP1;ratioP1;P1;durP2;ratioP2;P2;SDS_P1;SDS_P2;PMS_P1;PMS_P2;Temp;Humidity;BMP_temperature;BMP_pressure;BME280_temperature;BME280_humidity;BME280_pressure;Samples;Min_cycle;Max_cycle;Signal;HPM_P1;HPM_P2
2021/04/06 00:00:28;;;;;;;;;;;19.70;27.20;;;;;;491646;240;950;-68
2021/04/06 00:02:30;;;;;;;;;;;19.70;27.20;;;;;;491683;240;2152;-69
2021/04/06 00:04:31;;;;;;;;;;;19.70;27.20;;;;;;491618;240;1005;-68
2021/04/06 00:06:32;;;;;;;;;;;19.70;27.20;;;;;;491688;240;1059;-68
2021/04/06 00:08:33;;;;;;;;;;;19.70;27.20;;;;;;491598;240;976;-68
2021/04/06 00:10:35;;;;;;;;;;;19.80;27.10;;;;;;491672;239;1323;-69
2021/04/06 00:12:36;;;;;;;;;;;19.80;27.20;;;;;;491691;240;1169;-69
2021/04/06 00:14:37;;;;;;;;;;;19.70;27.10;;;;;;491682;240;984;-68
2021/04/06 00:16:38;;;;;;;;;;;19.70;27.20;;;;;;491622;240;1220;-69
2021/04/06 00:18:40;;;;;;;;;;;19.70;27.10;;;;;;491594;240;1032;-69
2021/04/06 00:20:41;;;;;;;;;;;19.70;27.20;;;;;;491624;240;1068;-68
2021/04/06 00:22:43;;;;;;;;;;;19.80;27.10;;;;;;491610;240;2184;-68
2021/04/06 00:24:44;;;;;;;;;;;19.80;27.20;;;;;;491680;240;1061;-68
2021/04/06 00:26:45;;;;;;;;;;;19.70;27.10;;;;;;491623;240;1293;-68
2021/04/06 00:28:46;;;;;;;;;;;19.80;27.00;;;;;;491692;240;1042;-68
2021/04/06 00:30:48;;;;;;;;;;;19.70;27.10;;;;;;491629;240;1024;-68
2021/04/06 00:32:49;;;;;;;;;;;19.70;27.10;;;;;;491622;240;932;-68
2021/04/06 00:34:50;;;;;;;;;;;19.60;27.20;;;;;;491717;240;1123;-68
2021/04/06 00:36:52;;;;;;;;;;;19.70;27.20;;;;;;491627;240;979;-68
2021/04/06 00:38:53;;;;;;;;;;;19.70;27.20;;;;;;491613;240;957;-68
2021/04/06 00:40:56;;;;;;;;;;;19.70;27.10;;;;;;491760;240;1199;-69
2021/04/06 00:42:55;;;;;;;;;;;19.70;27.20;;;;;;491596;241;2248;-68
2021/04/06 00:44:57;;;;;;;;;;;19.60;27.10;;;;;;491655;240;1068;-68
2021/04/06 00:46:58;;;;;;;;;;;19.70;27.20;;;;;;491658;240;1062;-68
2021/04/06 00:48:59;;;;;;;;;;;19.70;27.10;;;;;;491724;240;1037;-69
2021/04/06 00:51:00;;;;;;;;;;;19.60;27.10;;;;;;491584;240;1212;-68
2021/04/06 00:53:02;;;;;;;;;;;19.60;27.10;;;;;;491622;240;1053;-69
2021/04/06 00:55:03;;;;;;;;;;;19.70;27.20;;;;;;491724;240;1071;-69
2021/04/06 00:57:04;;;;;;;;;;;19.60;27.20;;;;;;491682;240;1185;-69
2021/04/06 00:59:06;;;;;;;;;;;19.60;27.20;;;;;;491659;240;990;-69
2021/04/06 01:01:07;;;;;;;;;;;19.60;27.10;;;;;;491745;240;1193;-68
2021/04/06 01:03:08;;;;;;;;;;;19.60;27.10;;;;;;491604;240;2211;-68
2021/04/06 01:05:09;;;;;;;;;;;19.50;27.10;;;;;;491733;240;957;-68
2021/04/06 01:07:11;;;;;;;;;;;19.60;27.00;;;;;;491613;240;1054;-68
2021/04/06 01:09:12;;;;;;;;;;;19.50;27.00;;;;;;491645;240;986;-68
2021/04/06 01:11:13;;;;;;;;;;;19.50;27.00;;;;;;491642;240;1252;-69
2021/04/06 01:13:14;;;;;;;;;;;19.50;27.10;;;;;;491603;240;1086;-69
2021/04/06 01:15:18;;;;;;;;;;;19.60;27.00;;;;;;491606;240;1039;-69
2021/04/06 01:17:17;;;;;;;;;;;19.60;27.00;;;;;;491600;242;1255;-68
2021/04/06 01:19:18;;;;;;;;;;;19.70;26.90;;;;;;491747;240;1051;-69
2021/04/06 01:21:20;;;;;;;;;;;19.60;26.90;;;;;;491634;240;1037;-68
2021/04/06 01:23:21;;;;;;;;;;;19.60;26.80;;;;;;491588;240;2167;-69
2021/04/06 01:25:22;;;;;;;;;;;19.60;26.80;;;;;;491661;240;1047;-69
2021/04/06 01:27:24;;;;;;;;;;;19.60;26.80;;;;;;491618;240;1285;-69
2021/04/06 01:29:25;;;;;;;;;;;19.70;26.80;;;;;;491652;240;956;-68
2021/04/06 01:31:26;;;;;;;;;;;19.60;26.80;;;;;;491604;240;1433;-70
2021/04/06 01:33:29;;;;;;;;;;;19.70;26.70;;;;;;491607;240;1061;-69
2021/04/06 01:35:29;;;;;;;;;;;19.70;26.70;;;;;;491609;240;1327;-68
2021/04/06 01:37:30;;;;;;;;;;;19.60;26.80;;;;;;491605;240;1408;-69
2021/04/06 01:39:31;;;;;;;;;;;19.60;26.70;;;;;;491644;240;968;-68
2021/04/06 01:41:32;;;;;;;;;;;19.70;26.70;;;;;;491625;240;1226;-69
2021/04/06 01:43:35;;;;;;;;;;;19.70;26.60;;;;;;491655;240;2124;-68
2021/04/06 01:45:43;;;;;;;;;;;19.70;26.60;;;;;;491656;240;1505;-69
2021/04/06 01:47:36;;;;;;;;;;;19.60;26.60;;;;;;491603;242;1480;-68
2021/04/06 01:49:37;;;;;;;;;;;19.60;26.60;;;;;;491720;240;1039;-68
2021/04/06 01:51:39;;;;;;;;;;;19.60;26.60;;;;;;491639;240;959;-68
2021/04/06 01:53:40;;;;;;;;;;;19.70;26.60;;;;;;491693;240;960;-68
2021/04/06 01:55:41;;;;;;;;;;;19.60;26.50;;;;;;491654;240;1163;-68
2021/04/06 01:57:45;;;;;;;;;;;19.60;26.60;;;;;;491691;240;1274;-69
2021/04/06 01:59:48;;;;;;;;;;;19.60;26.50;;;;;;491691;240;1225;-69
2021/04/06 02:01:46;;;;;;;;;;;19.50;26.40;;;;;;491568;241;1998;-68
2021/04/06 02:03:50;;;;;;;;;;;19.60;26.50;;;;;;491560;240;1125;-69
2021/04/06 02:05:49;;;;;;;;;;;19.60;26.40;;;;;;491710;241;1365;-69
2021/04/06 02:07:50;;;;;;;;;;;19.70;26.40;;;;;;491667;240;1077;-68
2021/04/06 02:09:51;;;;;;;;;;;19.60;26.40;;;;;;491725;240;981;-69
2021/04/06 02:11:52;;;;;;;;;;;19.60;26.50;;;;;;491631;240;1173;-69
2021/04/06 02:13:54;;;;;;;;;;;19.60;26.50;;;;;;491651;240;947;-69
2021/04/06 02:15:55;;;;;;;;;;;19.60;26.50;;;;;;491643;240;1034;-69
2021/04/06 02:17:56;;;;;;;;;;;19.60;26.40;;;;;;491560;240;1196;-69
2021/04/06 02:19:57;;;;;;;;;;;19.60;26.40;;;;;;491623;240;1069;-69
2021/04/06 02:21:59;;;;;;;;;;;19.50;26.40;;;;;;491566;240;2188;-69
2021/04/06 02:24:00;;;;;;;;;;;19.50;26.40;;;;;;491645;240;923;-69
2021/04/06 02:26:01;;;;;;;;;;;19.60;26.40;;;;;;491655;240;1384;-69
2021/04/06 02:28:03;;;;;;;;;;;19.50;26.30;;;;;;491645;240;1164;-69
2021/04/06 02:30:04;;;;;;;;;;;19.60;26.30;;;;;;491663;240;985;-69
2021/04/06 02:32:05;;;;;;;;;;;19.50;26.30;;;;;;491548;240;1244;-69
2021/04/06 02:34:07;;;;;;;;;;;19.50;26.30;;;;;;491616;240;953;-69
2021/04/06 02:36:08;;;;;;;;;;;19.40;26.30;;;;;;491575;240;1222;-69
2021/04/06 02:38:09;;;;;;;;;;;19.50;26.40;;;;;;491667;240;1164;-69
2021/04/06 02:40:10;;;;;;;;;;;19.50;26.40;;;;;;491681;240;1712;-69
2021/04/06 02:42:12;;;;;;;;;;;19.50;26.30;;;;;;491558;240;2187;-69
2021/04/06 02:44:13;;;;;;;;;;;19.50;26.30;;;;;;491680;240;964;-69
2021/04/06 02:46:14;;;;;;;;;;;19.50;26.30;;;;;;491570;240;1220;-69
2021/04/06 02:48:16;;;;;;;;;;;19.50;26.30;;;;;;491640;240;1088;-69
2021/04/06 02:50:17;;;;;;;;;;;19.40;26.30;;;;;;491620;240;1389;-69
2021/04/06 02:52:18;;;;;;;;;;;19.40;26.30;;;;;;491624;240;1183;-69
2021/04/06 02:54:19;;;;;;;;;;;19.40;26.30;;;;;;491653;240;1018;-69
2021/04/06 02:56:21;;;;;;;;;;;19.40;26.30;;;;;;491617;240;1302;-69
2021/04/06 02:58:22;;;;;;;;;;;19.40;26.30;;;;;;491640;240;1168;-71
2021/04/06 03:00:23;;;;;;;;;;;19.50;26.30;;;;;;491622;240;1004;-69
2021/04/06 03:02:24;;;;;;;;;;;19.40;26.30;;;;;;491608;240;2187;-69
2021/04/06 03:04:26;;;;;;;;;;;19.30;26.30;;;;;;491653;240;1086;-69
2021/04/06 03:06:27;;;;;;;;;;;19.40;26.20;;;;;;491696;240;1083;-69
2021/04/06 03:08:28;;;;;;;;;;;19.40;26.30;;;;;;491669;240;945;-68
2021/04/06 03:10:30;;;;;;;;;;;19.40;26.30;;;;;;491651;240;976;-69
2021/04/06 03:12:31;;;;;;;;;;;19.40;26.30;;;;;;491597;240;1149;-69
2021/04/06 03:14:32;;;;;;;;;;;19.40;26.30;;;;;;491609;240;1397;-69
2021/04/06 03:16:33;;;;;;;;;;;19.40;26.30;;;;;;491640;240;1045;-69
2021/04/06 03:18:35;;;;;;;;;;;19.30;26.30;;;;;;491670;240;1018;-69
2021/04/06 03:20:36;;;;;;;;;;;19.30;26.30;;;;;;491684;240;946;-69
2021/04/06 03:22:37;;;;;;;;;;;19.40;26.30;;;;;;491600;240;2179;-69
2021/04/06 03:24:39;;;;;;;;;;;19.40;26.30;;;;;;491647;240;977;-69
2021/04/06 03:26:40;;;;;;;;;;;19.30;26.20;;;;;;491598;240;1061;-69
2021/04/06 03:28:41;;;;;;;;;;;19.40;26.30;;;;;;491656;240;1192;-69
2021/04/06 03:30:42;;;;;;;;;;;19.40;26.30;;;;;;491689;240;955;-69
2021/04/06 03:32:44;;;;;;;;;;;19.30;26.20;;;;;;491587;240;1212;-69
2021/04/06 03:34:45;;;;;;;;;;;19.30;26.30;;;;;;491739;240;1072;-69
2021/04/06 03:36:46;;;;;;;;;;;19.30;26.30;;;;;;491588;240;1191;-69
2021/04/06 03:38:47;;;;;;;;;;;19.40;26.30;;;;;;491620;240;1015;-69
2021/04/06 03:40:49;;;;;;;;;;;19.40;26.30;;;;;;491592;240;972;-69
2021/04/06 03:42:50;;;;;;;;;;;19.30;26.30;;;;;;491627;240;2128;-69
2021/04/06 03:44:51;;;;;;;;;;;19.30;26.20;;;;;;491588;240;997;-69
2021/04/06 03:46:53;;;;;;;;;;;19.30;26.20;;;;;;491602;240;1202;-69
2021/04/06 03:48:56;;;;;;;;;;;19.30;26.20;;;;;;491688;240;1066;-69
2021/04/06 03:50:55;;;;;;;;;;;19.30;26.30;;;;;;491669;241;1520;-68
2021/04/06 03:52:56;;;;;;;;;;;19.20;26.30;;;;;;491613;240;1082;-68
2021/04/06 03:54:58;;;;;;;;;;;19.20;26.20;;;;;;491681;240;1006;-69
2021/04/06 03:57:00;;;;;;;;;;;19.30;26.20;;;;;;491553;240;1142;-69
2021/04/06 03:59:01;;;;;;;;;;;19.30;26.20;;;;;;491589;240;1468;-69
2021/04/06 04:01:02;;;;;;;;;;;19.20;26.20;;;;;;491489;241;1944;-69
2021/04/06 04:03:03;;;;;;;;;;;19.20;26.30;;;;;;491594;240;2129;-69
2021/04/06 04:05:04;;;;;;;;;;;19.20;26.30;;;;;;491640;240;1039;-69
2021/04/06 04:07:07;;;;;;;;;;;19.20;26.30;;;;;;491605;240;1152;-69
2021/04/06 04:09:08;;;;;;;;;;;19.20;26.30;;;;;;491520;240;983;-69
2021/04/06 04:11:09;;;;;;;;;;;19.20;26.30;;;;;;491607;240;1175;-69
2021/04/06 04:13:11;;;;;;;;;;;19.20;26.30;;;;;;491649;240;1165;-68
2021/04/06 04:15:12;;;;;;;;;;;19.20;26.40;;;;;;491648;240;1064;-68
2021/04/06 04:17:13;;;;;;;;;;;19.20;26.30;;;;;;491616;240;1190;-68
2021/04/06 04:19:14;;;;;;;;;;;19.20;26.20;;;;;;491506;240;1003;-68
2021/04/06 04:21:16;;;;;;;;;;;19.20;26.20;;;;;;491535;238;1291;-68
2021/04/06 04:23:17;;;;;;;;;;;19.20;26.20;;;;;;491598;240;2132;-68
2021/04/06 04:25:18;;;;;;;;;;;19.20;26.30;;;;;;491512;240;1013;-68
2021/04/06 04:27:19;;;;;;;;;;;19.20;26.30;;;;;;491493;240;1229;-68
2021/04/06 04:29:21;;;;;;;;;;;19.20;26.30;;;;;;491620;240;1417;-68
2021/04/06 04:31:22;;;;;;;;;;;19.20;26.30;;;;;;491559;240;1274;-68
2021/04/06 04:33:23;;;;;;;;;;;19.10;26.30;;;;;;491490;240;1237;-68
2021/04/06 04:35:25;;;;;;;;;;;19.10;26.20;;;;;;491519;240;1246;-68
2021/04/06 04:37:26;;;;;;;;;;;19.20;26.30;;;;;;491500;240;1099;-68
2021/04/06 04:39:27;;;;;;;;;;;19.10;26.20;;;;;;491549;240;1568;-68
2021/04/06 04:41:28;;;;;;;;;;;19.10;26.30;;;;;;491587;240;1211;-68
2021/04/06 04:43:30;;;;;;;;;;;19.10;26.30;;;;;;491507;240;2124;-68
2021/04/06 04:45:31;;;;;;;;;;;19.10;26.20;;;;;;491488;240;1224;-68
2021/04/06 04:47:32;;;;;;;;;;;19.20;26.20;;;;;;491451;240;1083;-69
2021/04/06 04:49:33;;;;;;;;;;;19.20;26.20;;;;;;491552;240;1056;-69
2021/04/06 04:51:35;;;;;;;;;;;19.20;26.20;;;;;;491479;240;1195;-69
2021/04/06 04:53:36;;;;;;;;;;;19.20;26.20;;;;;;491075;240;1181;-69
2021/04/06 04:55:37;;;;;;;;;;;19.10;26.20;;;;;;491477;240;1051;-69
2021/04/06 04:57:39;;;;;;;;;;;19.20;26.10;;;;;;491383;240;1031;-69
2021/04/06 04:59:40;;;;;;;;;;;19.20;26.20;;;;;;491485;240;1168;-69
2021/04/06 05:01:41;;;;;;;;;;;19.20;26.10;;;;;;491508;240;1270;-69
2021/04/06 05:03:42;;;;;;;;;;;19.20;26.10;;;;;;491433;240;2191;-69
2021/04/06 05:05:44;;;;;;;;;;;19.20;26.20;;;;;;491492;240;1047;-69
2021/04/06 05:07:45;;;;;;;;;;;19.20;26.10;;;;;;491467;240;1033;-69
2021/04/06 05:09:46;;;;;;;;;;;19.20;26.10;;;;;;491427;240;1263;-69
2021/04/06 05:11:48;;;;;;;;;;;19.20;26.10;;;;;;491334;240;1219;-69
2021/04/06 05:13:49;;;;;;;;;;;19.20;26.10;;;;;;491403;240;1139;-69
2021/04/06 05:15:50;;;;;;;;;;;19.20;26.10;;;;;;491432;240;1178;-69
2021/04/06 05:17:51;;;;;;;;;;;19.20;26.20;;;;;;491427;240;1098;-69
2021/04/06 05:19:53;;;;;;;;;;;19.10;26.20;;;;;;491393;240;1054;-69
2021/04/06 05:21:54;;;;;;;;;;;19.20;26.20;;;;;;491428;240;1112;-69
2021/04/06 05:23:55;;;;;;;;;;;19.20;26.20;;;;;;491222;240;2192;-69
2021/04/06 05:25:56;;;;;;;;;;;19.20;26.10;;;;;;491333;240;1083;-69
2021/04/06 05:27:58;;;;;;;;;;;19.30;26.10;;;;;;491186;240;1089;-69
2021/04/06 05:29:59;;;;;;;;;;;19.20;26.10;;;;;;491175;240;1196;-69
2021/04/06 05:32:00;;;;;;;;;;;19.20;26.10;;;;;;491113;240;1208;-69
2021/04/06 05:34:02;;;;;;;;;;;19.20;26.10;;;;;;491272;240;1065;-69
2021/04/06 05:36:03;;;;;;;;;;;19.20;26.20;;;;;;491094;238;1198;-69
2021/04/06 05:38:04;;;;;;;;;;;19.20;26.10;;;;;;491285;240;1011;-69
2021/04/06 05:40:06;;;;;;;;;;;19.20;26.10;;;;;;491234;240;1027;-69
2021/04/06 05:42:07;;;;;;;;;;;19.20;26.10;;;;;;491235;240;1052;-69
2021/04/06 05:44:08;;;;;;;;;;;19.30;26.10;;;;;;491263;240;2161;-69
2021/04/06 05:46:09;;;;;;;;;;;19.20;26.00;;;;;;491254;240;1029;-69
2021/04/06 05:48:11;;;;;;;;;;;19.20;26.00;;;;;;491304;240;1076;-69
2021/04/06 05:50:12;;;;;;;;;;;19.20;26.00;;;;;;491314;240;993;-69
2021/04/06 05:52:13;;;;;;;;;;;19.20;26.10;;;;;;491220;240;1111;-69
2021/04/06 05:54:15;;;;;;;;;;;19.20;26.10;;;;;;491127;240;1014;-69
2021/04/06 05:56:16;;;;;;;;;;;19.20;26.10;;;;;;491013;240;1197;-69
2021/04/06 05:58:17;;;;;;;;;;;19.20;26.10;;;;;;491048;240;1048;-69
2021/04/06 06:00:18;;;;;;;;;;;19.20;26.00;;;;;;490955;240;1310;-69
2021/04/06 06:02:20;;;;;;;;;;;19.20;26.00;;;;;;490959;240;1158;-69
2021/04/06 06:04:21;;;;;;;;;;;19.20;26.00;;;;;;491093;240;2141;-69
2021/04/06 06:06:23;;;;;;;;;;;19.20;26.00;;;;;;490659;238;1279;-69
2021/04/06 06:08:25;;;;;;;;;;;19.20;26.00;;;;;;490850;240;1050;-69
2021/04/06 06:10:25;;;;;;;;;;;19.20;26.00;;;;;;491037;240;1468;-69
2021/04/06 06:12:27;;;;;;;;;;;19.20;26.00;;;;;;490992;240;1160;-69
2021/04/06 06:14:28;;;;;;;;;;;19.20;26.00;;;;;;490943;240;1155;-68
2021/04/06 06:16:31;;;;;;;;;;;19.20;26.00;;;;;;490785;240;1454;-69
2021/04/06 06:18:30;;;;;;;;;;;19.30;26.00;;;;;;490741;241;1495;-69
2021/04/06 06:20:32;;;;;;;;;;;19.30;26.00;;;;;;490831;240;1075;-69
2021/04/06 06:22:33;;;;;;;;;;;19.20;25.90;;;;;;490912;240;1084;-69
2021/04/06 06:24:35;;;;;;;;;;;19.30;26.00;;;;;;491021;240;2192;-69
2021/04/06 06:26:36;;;;;;;;;;;19.20;26.00;;;;;;490990;240;1279;-69
2021/04/06 06:28:37;;;;;;;;;;;19.20;25.90;;;;;;490874;240;1044;-69
2021/04/06 06:30:38;;;;;;;;;;;19.20;26.00;;;;;;491092;240;1102;-69
2021/04/06 06:32:39;;;;;;;;;;;19.20;26.00;;;;;;491113;240;1216;-69
2021/04/06 06:34:41;;;;;;;;;;;19.30;26.00;;;;;;491017;240;1046;-69
2021/04/06 06:36:42;;;;;;;;;;;19.30;26.00;;;;;;491006;240;1207;-69
2021/04/06 06:38:44;;;;;;;;;;;19.30;26.00;;;;;;490910;240;1058;-69
2021/04/06 06:40:44;;;;;;;;;;;19.70;25.80;;;;;;490987;240;1078;-69
2021/04/06 06:42:46;;;;;;;;;;;19.40;25.70;;;;;;490793;240;1094;-69
2021/04/06 06:44:47;;;;;;;;;;;19.40;25.80;;;;;;490869;240;2215;-69
2021/04/06 06:46:48;;;;;;;;;;;19.40;25.80;;;;;;490975;240;1338;-69
2021/04/06 06:48:50;;;;;;;;;;;19.30;25.90;;;;;;490983;241;1263;-69
2021/04/06 06:50:51;;;;;;;;;;;19.30;25.90;;;;;;490950;240;1064;-69
2021/04/06 06:52:52;;;;;;;;;;;19.30;25.90;;;;;;490987;240;1074;-69
2021/04/06 06:54:57;;;;;;;;;;;19.30;25.90;;;;;;491040;240;1064;-69
2021/04/06 06:56:56;;;;;;;;;;;19.30;25.80;;;;;;490951;241;1205;-69
2021/04/06 06:58:57;;;;;;;;;;;19.30;25.90;;;;;;490877;240;1064;-69
2021/04/06 07:00:59;;;;;;;;;;;19.30;25.90;;;;;;490903;240;1314;-69
2021/04/06 07:03:00;;;;;;;;;;;19.30;25.80;;;;;;490885;240;1275;-69
2021/04/06 07:05:02;;;;;;;;;;;19.30;25.80;;;;;;490664;240;2192;-69
2021/04/06 07:07:03;;;;;;;;;;;19.30;25.90;;;;;;490871;240;1234;-69
2021/04/06 07:09:04;;;;;;;;;;;19.30;25.80;;;;;;490744;240;1153;-69
2021/04/06 07:11:05;;;;;;;;;;;19.40;25.70;;;;;;490919;240;1055;-69
2021/04/06 07:13:07;;;;;;;;;;;19.40;25.70;;;;;;490909;240;1163;-69
2021/04/06 07:15:08;;;;;;;;;;;19.40;25.70;;;;;;490837;240;1218;-69
2021/04/06 07:17:10;;;;;;;;;;;19.40;25.70;;;;;;490691;240;1201;-69
2021/04/06 07:19:11;;;;;;;;;;;19.30;25.70;;;;;;490650;240;1097;-69
2021/04/06 07:21:12;;;;;;;;;;;19.40;25.80;;;;;;490584;240;1203;-69
2021/04/06 07:23:13;;;;;;;;;;;19.40;25.70;;;;;;490783;240;1125;-69
2021/04/06 07:25:15;;;;;;;;;;;19.50;25.60;;;;;;490756;240;2177;-69
2021/04/06 07:27:16;;;;;;;;;;;19.50;25.60;;;;;;490646;240;1187;-69
2021/04/06 07:29:17;;;;;;;;;;;19.40;25.50;;;;;;490719;240;1076;-69
2021/04/06 07:31:18;;;;;;;;;;;19.50;25.60;;;;;;490676;240;1207;-69
2021/04/06 07:33:20;;;;;;;;;;;19.40;25.50;;;;;;490611;241;1103;-69
2021/04/06 07:35:21;;;;;;;;;;;19.40;25.60;;;;;;490678;240;1091;-69
2021/04/06 07:37:22;;;;;;;;;;;19.60;25.60;;;;;;490687;240;1172;-69
2021/04/06 07:39:24;;;;;;;;;;;19.50;25.50;;;;;;490764;240;1079;-69
2021/04/06 07:41:25;;;;;;;;;;;19.50;25.50;;;;;;490711;240;1120;-69
2021/04/06 07:43:26;;;;;;;;;;;19.50;25.50;;;;;;490697;240;1211;-69
2021/04/06 07:45:27;;;;;;;;;;;19.50;25.50;;;;;;490565;240;2191;-69
2021/04/06 07:47:29;;;;;;;;;;;19.60;25.50;;;;;;490716;240;1089;-69
2021/04/06 07:49:30;;;;;;;;;;;19.50;25.50;;;;;;490685;240;1183;-69
2021/04/06 07:51:31;;;;;;;;;;;19.50;25.50;;;;;;490613;240;1090;-69
2021/04/06 07:53:34;;;;;;;;;;;19.50;25.50;;;;;;490677;240;1163;-69
2021/04/06 07:55:34;;;;;;;;;;;19.50;25.50;;;;;;490557;241;1376;-69
2021/04/06 07:57:36;;;;;;;;;;;19.50;25.50;;;;;;490691;240;1112;-69
2021/04/06 07:59:37;;;;;;;;;;;19.50;25.60;;;;;;490794;240;1157;-69
2021/04/06 08:01:38;;;;;;;;;;;19.60;25.60;;;;;;490738;240;1331;-69
2021/04/06 08:03:39;;;;;;;;;;;19.50;25.50;;;;;;490708;240;1146;-69
2021/04/06 08:05:41;;;;;;;;;;;19.60;25.50;;;;;;491180;240;2117;-69
2021/04/06 08:07:42;;;;;;;;;;;19.70;25.40;;;;;;491655;240;863;-69
2021/04/06 08:09:43;;;;;;;;;;;19.70;25.40;;;;;;491251;240;927;-69
2021/04/06 08:11:44;;;;;;;;;;;19.70;25.40;;;;;;491600;240;855;-69
2021/04/06 08:13:46;;;;;;;;;;;19.70;25.40;;;;;;490924;240;833;-69
2021/04/06 08:15:47;;;;;;;;;;;19.60;25.50;;;;;;491477;240;1092;-69
2021/04/06 08:17:48;;;;;;;;;;;19.60;25.50;;;;;;491029;240;969;-69
2021/04/06 08:19:50;;;;;;;;;;;19.60;25.50;;;;;;490665;240;1059;-69
2021/04/06 08:21:51;;;;;;;;;;;19.60;25.50;;;;;;490675;240;1126;-69
2021/04/06 08:23:52;;;;;;;;;;;19.70;25.50;;;;;;490734;240;1068;-69
2021/04/06 08:25:54;;;;;;;;;;;19.70;25.50;;;;;;490661;240;2187;-69
2021/04/06 08:27:55;;;;;;;;;;;19.70;25.50;;;;;;490758;240;1263;-69
2021/04/06 08:29:56;;;;;;;;;;;19.70;25.50;;;;;;490662;240;1091;-69
2021/04/06 08:31:58;;;;;;;;;;;19.80;25.40;;;;;;490617;240;1166;-69
2021/04/06 08:33:59;;;;;;;;;;;19.70;25.50;;;;;;490840;240;1150;-69
2021/04/06 08:36:00;;;;;;;;;;;19.70;25.50;;;;;;490864;240;1207;-69
2021/04/06 08:38:02;;;;;;;;;;;19.70;25.50;;;;;;490757;240;1117;-69
2021/04/06 08:40:03;;;;;;;;;;;19.70;25.50;;;;;;490751;240;1192;-69
2021/04/06 08:42:04;;;;;;;;;;;19.60;25.50;;;;;;490719;240;1112;-69
2021/04/06 08:44:06;;;;;;;;;;;19.60;25.60;;;;;;490620;240;2180;-69
2021/04/06 08:46:07;;;;;;;;;;;19.60;25.50;;;;;;490679;240;1090;-69
2021/04/06 08:48:09;;;;;;;;;;;19.70;25.50;;;;;;490660;240;1181;-69
2021/04/06 08:50:10;;;;;;;;;;;19.70;25.60;;;;;;490583;240;1076;-69
2021/04/06 08:52:11;;;;;;;;;;;19.70;25.60;;;;;;490619;240;1092;-69
2021/04/06 08:54:13;;;;;;;;;;;19.60;25.60;;;;;;490750;240;1167;-69
2021/04/06 08:56:14;;;;;;;;;;;19.60;25.50;;;;;;490619;240;1231;-69
2021/04/06 08:58:15;;;;;;;;;;;19.50;25.60;;;;;;490851;240;1245;-69
2021/04/06 09:00:16;;;;;;;;;;;19.50;25.60;;;;;;490840;240;1201;-69
2021/04/06 09:02:18;;;;;;;;;;;19.50;25.60;;;;;;491281;240;1140;-69
2021/04/06 09:04:20;;;;;;;;;;;19.50;25.60;;;;;;491386;240;2179;-69
2021/04/06 09:06:21;;;;;;;;;;;19.60;25.60;;;;;;490829;242;1368;-69
2021/04/06 09:08:25;;;;;;;;;;;19.60;25.60;;;;;;491340;240;999;-69
2021/04/06 09:10:23;;;;;;;;;;;19.60;25.70;;;;;;490924;241;1302;-69
2021/04/06 09:12:24;;;;;;;;;;;19.50;25.70;;;;;;491510;240;1083;-69
2021/04/06 09:14:26;;;;;;;;;;;19.50;25.70;;;;;;491553;240;846;-69
2021/04/06 09:16:27;;;;;;;;;;;19.50;25.70;;;;;;491221;240;1171;-69
2021/04/06 09:18:28;;;;;;;;;;;19.50;25.70;;;;;;490501;240;1101;-69
2021/04/06 09:20:29;;;;;;;;;;;19.50;25.70;;;;;;491141;242;878;-69
2021/04/06 09:22:31;;;;;;;;;;;19.60;25.70;;;;;;491079;240;927;-69
2021/04/06 09:24:32;;;;;;;;;;;19.60;25.70;;;;;;491266;240;2191;-69
2021/04/06 09:26:33;;;;;;;;;;;19.70;25.70;;;;;;491341;240;694;-69
2021/04/06 09:28:34;;;;;;;;;;;19.70;25.70;;;;;;491362;240;782;-69
2021/04/06 09:30:43;;;;;;;;;;;19.60;25.70;;;;;;491350;240;801;-69
2021/04/06 09:32:37;;;;;;;;;;;19.60;25.80;;;;;;490947;242;1235;-70
2021/04/06 09:34:38;;;;;;;;;;;19.60;25.80;;;;;;491004;240;843;-69
2021/04/06 09:36:40;;;;;;;;;;;19.60;25.80;;;;;;491460;240;782;-69
2021/04/06 09:38:41;;;;;;;;;;;19.60;25.70;;;;;;491038;240;715;-69
2021/04/06 09:40:42;;;;;;;;;;;19.70;25.70;;;;;;490986;240;785;-69
2021/04/06 09:42:43;;;;;;;;;;;19.80;25.70;;;;;;491000;240;791;-69
2021/04/06 09:44:45;;;;;;;;;;;19.80;25.60;;;;;;491090;240;2164;-69
2021/04/06 09:46:46;;;;;;;;;;;19.80;25.60;;;;;;491402;240;839;-69
2021/04/06 09:48:47;;;;;;;;;;;19.80;25.70;;;;;;490873;242;1112;-69
2021/04/06 09:50:49;;;;;;;;;;;19.80;25.70;;;;;;490746;240;1119;-69
2021/04/06 09:52:50;;;;;;;;;;;19.90;25.70;;;;;;490738;240;1069;-69
2021/04/06 09:54:51;;;;;;;;;;;20.00;25.70;;;;;;490560;240;1344;-69
2021/04/06 09:56:53;;;;;;;;;;;20.00;25.70;;;;;;490652;240;1116;-69
2021/04/06 09:58:54;;;;;;;;;;;20.00;25.60;;;;;;490694;240;1154;-69
2021/04/06 10:00:55;;;;;;;;;;;20.00;25.60;;;;;;490255;240;1752;-69
2021/04/06 10:02:57;;;;;;;;;;;20.10;25.60;;;;;;490563;240;1213;-69
2021/04/06 10:04:58;;;;;;;;;;;20.20;25.60;;;;;;490428;240;2192;-69
2021/04/06 10:07:00;;;;;;;;;;;20.20;25.50;;;;;;490575;240;1228;-69
2021/04/06 10:09:01;;;;;;;;;;;20.20;25.60;;;;;;490687;240;1237;-69
2021/04/06 10:11:02;;;;;;;;;;;20.20;25.50;;;;;;490733;240;1107;-69
2021/04/06 10:13:03;;;;;;;;;;;20.20;25.50;;;;;;490840;240;1225;-69
2021/04/06 10:15:05;;;;;;;;;;;20.30;25.50;;;;;;491442;242;1209;-69
2021/04/06 10:17:06;;;;;;;;;;;20.30;25.50;;;;;;491111;240;1013;-69
2021/04/06 10:19:07;;;;;;;;;;;20.30;25.50;;;;;;491003;240;1086;-69
2021/04/06 10:21:08;;;;;;;;;;;20.30;25.50;;;;;;491384;240;1414;-69
2021/04/06 10:23:10;;;;;;;;;;;20.30;25.40;;;;;;490918;240;1454;-69
2021/04/06 10:25:11;;;;;;;;;;;20.30;25.50;;;;;;491411;240;2187;-69
2021/04/06 10:27:12;;;;;;;;;;;20.30;25.50;;;;;;490682;240;1014;-69
2021/04/06 10:29:14;;;;;;;;;;;20.30;25.40;;;;;;491264;240;801;-69
2021/04/06 10:31:15;;;;;;;;;;;20.40;25.30;;;;;;491299;240;1125;-69
2021/04/06 10:33:16;;;;;;;;;;;20.40;25.30;;;;;;491178;240;1267;-68
2021/04/06 10:35:17;;;;;;;;;;;20.40;25.30;;;;;;490903;240;850;-69
2021/04/06 10:37:19;;;;;;;;;;;20.40;25.20;;;;;;491063;240;1125;-69
2021/04/06 10:39:21;;;;;;;;;;;20.40;25.30;;;;;;491353;240;818;-68
2021/04/06 10:41:22;;;;;;;;;;;20.40;25.30;;;;;;491263;240;1543;-68
2021/04/06 10:43:23;;;;;;;;;;;20.40;25.30;;;;;;490851;240;1081;-68
2021/04/06 10:45:24;;;;;;;;;;;20.40;25.30;;;;;;491418;240;2240;-68
2021/04/06 10:47:26;;;;;;;;;;;20.40;25.30;;;;;;491373;240;1234;-68
2021/04/06 10:49:27;;;;;;;;;;;20.40;25.30;;;;;;490946;240;1067;-68
2021/04/06 10:51:28;;;;;;;;;;;20.40;25.30;;;;;;491403;240;809;-69
2021/04/06 10:53:30;;;;;;;;;;;20.40;25.30;;;;;;490263;240;789;-69
2021/04/06 10:55:31;;;;;;;;;;;20.40;25.30;;;;;;490983;240;1228;-68
2021/04/06 10:57:32;;;;;;;;;;;20.40;25.30;;;;;;491357;240;831;-68
2021/04/06 10:59:33;;;;;;;;;;;20.50;25.30;;;;;;491016;240;867;-69
2021/04/06 11:01:35;;;;;;;;;;;20.40;25.30;;;;;;491017;240;1039;-69
2021/04/06 11:03:36;;;;;;;;;;;20.50;25.40;;;;;;491158;240;1252;-69
2021/04/06 11:05:38;;;;;;;;;;;20.50;25.40;;;;;;491108;240;2175;-69
2021/04/06 11:07:39;;;;;;;;;;;20.50;25.30;;;;;;490725;240;1384;-69
2021/04/06 11:09:40;;;;;;;;;;;20.50;25.30;;;;;;491258;240;712;-69
2021/04/06 11:11:41;;;;;;;;;;;20.50;25.40;;;;;;490892;240;995;-69
2021/04/06 11:13:43;;;;;;;;;;;20.50;25.40;;;;;;491247;240;794;-69
2021/04/06 11:15:44;;;;;;;;;;;20.50;25.40;;;;;;491129;240;780;-69
2021/04/06 11:17:45;;;;;;;;;;;20.40;25.40;;;;;;490706;240;1023;-69
2021/04/06 11:19:46;;;;;;;;;;;20.50;25.40;;;;;;490509;240;1178;-69
2021/04/06 11:21:48;;;;;;;;;;;20.50;25.40;;;;;;490506;240;1159;-69
2021/04/06 11:23:49;;;;;;;;;;;20.50;25.50;;;;;;490490;240;1073;-69
2021/04/06 11:25:50;;;;;;;;;;;20.60;25.50;;;;;;490539;240;2132;-69
2021/04/06 11:27:56;;;;;;;;;;;20.50;25.40;;;;;;490641;240;1265;-69
2021/04/06 11:29:54;;;;;;;;;;;20.50;25.40;;;;;;490641;241;1277;-69
2021/04/06 11:31:55;;;;;;;;;;;20.50;25.40;;;;;;490626;240;1161;-69
2021/04/06 11:33:56;;;;;;;;;;;20.50;25.40;;;;;;490587;240;1139;-69
2021/04/06 11:35:57;;;;;;;;;;;20.50;25.40;;;;;;490600;240;1333;-69
2021/04/06 11:37:59;;;;;;;;;;;20.60;25.40;;;;;;490606;240;1122;-69
2021/04/06 11:40:00;;;;;;;;;;;20.60;25.40;;;;;;490612;240;1169;-69
2021/04/06 11:42:01;;;;;;;;;;;20.60;25.40;;;;;;490973;240;1193;-69
2021/04/06 11:44:03;;;;;;;;;;;20.60;25.40;;;;;;491064;240;1101;-69
2021/04/06 11:46:04;;;;;;;;;;;20.60;25.40;;;;;;490569;240;2116;-69
2021/04/06 11:48:05;;;;;;;;;;;20.60;25.50;;;;;;491514;240;1044;-69
2021/04/06 11:50:07;;;;;;;;;;;20.60;25.50;;;;;;491000;240;1120;-69
2021/04/06 11:52:08;;;;;;;;;;;20.60;25.50;;;;;;491389;241;1413;-69
2021/04/06 11:54:09;;;;;;;;;;;20.60;25.50;;;;;;490843;240;1077;-69
2021/04/06 11:56:10;;;;;;;;;;;20.60;25.60;;;;;;490692;240;1193;-69